createdAt,value
2018-12-13T00:00:10.086Z,0.90
2018-12-13T00:02:39.173Z,0.90
2018-12-13T00:05:08.411Z,1.00
2018-12-13T00:07:36.614Z,1.00
2018-12-13T00:10:07.678Z,0.90
2018-12-13T00:12:35.817Z,0.90
2018-12-13T00:15:05.578Z,0.80
2018-12-13T00:17:33.861Z,0.80
2018-12-13T00:20:05.515Z,0.70
2018-12-13T00:22:33.650Z,0.70
2018-12-13T00:25:02.894Z,0.60
2018-12-13T00:27:31.143Z,0.50
2018-12-13T00:29:59.654Z,0.50
2018-12-13T00:32:27.902Z,0.40
2018-12-13T00:34:56.048Z,0.40
2018-12-13T00:37:24.306Z,0.30
2018-12-13T00:39:52.559Z,0.20
2018-12-13T00:42:27.465Z,0.20
2018-12-13T00:44:55.637Z,0.10
2018-12-13T00:47:23.783Z,0.00
2018-12-13T00:49:51.935Z,-0.10
2018-12-13T00:52:20.162Z,-0.10
2018-12-13T00:54:48.407Z,-0.20
2018-12-13T00:57:16.539Z,-0.30
2018-12-13T00:59:45.314Z,-0.30
2018-12-13T01:02:14.158Z,-0.30
2018-12-13T01:04:42.416Z,-0.30
2018-12-13T01:07:10.678Z,-0.30
2018-12-13T01:09:38.823Z,-0.40
2018-12-13T01:12:07.898Z,-0.30
2018-12-13T01:14:37.038Z,-0.30
2018-12-13T01:17:05.240Z,-0.30
2018-12-13T01:19:33.455Z,-0.20
2018-12-13T01:22:03.594Z,-0.30
2018-12-13T01:24:31.852Z,-0.30
2018-12-13T01:27:00.099Z,-0.20
2018-12-13T01:29:28.306Z,-0.10
2018-12-13T01:31:56.489Z,-0.10
2018-12-13T01:34:24.630Z,-0.20
2018-12-13T01:36:52.786Z,-0.20
2018-12-13T01:39:21.996Z,-0.20
2018-12-13T01:41:50.231Z,-0.20
2018-12-13T01:44:18.492Z,-0.20
2018-12-13T01:46:46.666Z,-0.20
2018-12-13T01:49:14.834Z,-0.10
2018-12-13T01:51:42.995Z,-0.10
2018-12-13T01:54:11.170Z,-0.10
2018-12-13T01:56:39.366Z,-0.10
2018-12-13T01:59:07.729Z,0.00
2018-12-13T02:01:35.884Z,0.00
2018-12-13T02:04:06.607Z,0.00
2018-12-13T02:06:35.074Z,0.00
2018-12-13T02:09:07.379Z,0.00
2018-12-13T02:11:35.510Z,0.00
2018-12-13T02:14:05.116Z,0.00
2018-12-13T02:16:33.283Z,-0.10
2018-12-13T02:19:02.839Z,0.00
2018-12-13T02:21:31.025Z,0.00
2018-12-13T02:23:59.850Z,0.10
2018-12-13T02:26:28.071Z,0.20
2018-12-13T02:28:56.311Z,0.30
2018-12-13T02:31:24.572Z,0.30
2018-12-13T02:33:54.338Z,0.30
2018-12-13T02:36:22.609Z,0.30
2018-12-13T02:38:50.814Z,0.30
2018-12-13T02:41:19.639Z,0.30
2018-12-13T02:43:47.880Z,0.30
2018-12-13T02:46:16.436Z,0.30
2018-12-13T02:48:45.008Z,0.30
2018-12-13T02:51:14.000Z,0.30
2018-12-13T02:53:42.127Z,0.40
2018-12-13T02:56:10.564Z,0.40
2018-12-13T02:58:38.817Z,0.40
2018-12-13T03:01:07.055Z,0.40
2018-12-13T03:03:35.350Z,0.40
2018-12-13T03:06:04.744Z,0.40
2018-12-13T03:08:32.986Z,0.40
2018-12-13T03:11:02.897Z,0.30
2018-12-13T03:13:31.118Z,0.20
2018-12-13T03:15:59.358Z,0.20
2018-12-13T03:18:27.514Z,0.20
2018-12-13T03:20:55.713Z,0.20
2018-12-13T03:23:24.263Z,0.10
2018-12-13T03:25:52.539Z,0.10
2018-12-13T03:28:27.546Z,0.10
2018-12-13T03:30:55.799Z,0.10
2018-12-13T03:33:24.548Z,0.10
2018-12-13T03:35:52.919Z,0.00
2018-12-13T03:38:21.072Z,0.00
2018-12-13T03:40:49.358Z,0.00
2018-12-13T03:43:17.513Z,0.00
2018-12-13T03:45:45.690Z,0.00
2018-12-13T03:48:14.087Z,0.00
2018-12-13T03:50:44.002Z,0.00
2018-12-13T03:53:12.176Z,0.00
2018-12-13T03:55:40.424Z,0.10
2018-12-13T03:58:08.582Z,0.20
2018-12-13T04:00:36.883Z,0.30
2018-12-13T04:03:05.027Z,0.30
2018-12-13T04:05:33.179Z,0.30
2018-12-13T04:08:05.730Z,0.20
2018-12-13T04:10:34.267Z,0.20
2018-12-13T04:13:05.169Z,0.20
2018-12-13T04:15:33.485Z,0.20
2018-12-13T04:18:02.784Z,0.30
2018-12-13T04:20:31.034Z,0.20
2018-12-13T04:22:59.366Z,0.10
2018-12-13T04:25:27.602Z,0.00
2018-12-13T04:27:56.034Z,0.00
2018-12-13T04:30:24.186Z,-0.10
2018-12-13T04:32:52.343Z,-0.10
2018-12-13T04:35:20.638Z,-0.20
2018-12-13T04:37:48.834Z,-0.30
2018-12-13T04:40:17.015Z,-0.40
2018-12-13T04:42:45.166Z,-0.40
2018-12-13T04:45:13.352Z,-0.50
2018-12-13T04:47:41.528Z,-0.50
2018-12-13T04:50:09.803Z,-0.50
2018-12-13T04:52:38.585Z,-0.60
2018-12-13T04:55:06.852Z,-0.60
2018-12-13T04:57:36.091Z,-0.70
2018-12-13T05:00:07.082Z,-0.80
2018-12-13T05:02:35.265Z,-0.90
2018-12-13T05:05:05.358Z,-1.00
2018-12-13T05:07:34.247Z,-1.10
2018-12-13T05:10:05.538Z,-1.20
2018-12-13T05:12:33.821Z,-1.20
2018-12-13T05:15:05.495Z,-1.20
2018-12-13T05:17:34.548Z,-1.30
2018-12-13T05:20:03.857Z,-1.30
2018-12-13T05:22:32.030Z,-1.30
2018-12-13T05:25:00.315Z,-1.30
2018-12-13T05:27:28.507Z,-1.40
2018-12-13T05:29:56.682Z,-1.40
2018-12-13T05:32:24.862Z,-1.40
2018-12-13T05:34:54.334Z,-1.40
2018-12-13T05:37:23.487Z,-1.40
2018-12-13T05:39:51.669Z,-1.40
2018-12-13T05:42:19.831Z,-1.50
2018-12-13T05:44:48.028Z,-1.50
2018-12-13T05:47:16.247Z,-1.60
2018-12-13T05:49:44.481Z,-1.70
2018-12-13T05:52:12.681Z,-1.70
2018-12-13T05:54:41.002Z,-1.70
2018-12-13T05:57:09.690Z,-1.70
2018-12-13T05:59:37.832Z,-1.70
2018-12-13T06:02:06.231Z,-1.70
2018-12-13T06:04:34.839Z,-1.80
2018-12-13T06:07:07.746Z,-1.80
2018-12-13T06:09:35.956Z,-1.80
2018-12-13T06:12:04.907Z,-1.90
2018-12-13T06:14:33.054Z,-1.90
2018-12-13T06:17:03.027Z,-2.00
2018-12-13T06:19:31.234Z,-2.00
2018-12-13T06:21:59.410Z,-2.10
2018-12-13T06:24:27.597Z,-2.10
2018-12-13T06:26:55.860Z,-2.10
2018-12-13T06:29:24.110Z,-2.10
2018-12-13T06:31:52.378Z,-2.10
2018-12-13T06:34:21.568Z,-2.10
2018-12-13T06:36:49.855Z,-2.20
2018-12-13T06:39:18.038Z,-2.20
2018-12-13T06:41:46.250Z,-2.20
2018-12-13T06:44:14.783Z,-2.20
2018-12-13T06:46:43.322Z,-2.30
2018-12-13T06:49:11.552Z,-2.20
2018-12-13T06:51:40.525Z,-2.30
2018-12-13T06:54:09.211Z,-2.30
2018-12-13T06:56:37.454Z,-2.40
2018-12-13T06:59:06.654Z,-2.40
2018-12-13T07:01:34.850Z,-2.40
2018-12-13T07:04:05.884Z,-2.40
2018-12-13T07:06:34.014Z,-2.50
2018-12-13T07:09:04.858Z,-2.50
2018-12-13T07:11:33.131Z,-2.50
2018-12-13T07:14:01.971Z,-2.60
2018-12-13T07:16:30.211Z,-2.60
2018-12-13T07:18:58.396Z,-2.60
2018-12-13T07:21:26.614Z,-2.60
2018-12-13T07:23:54.781Z,-2.60
2018-12-13T07:26:23.449Z,-2.60
2018-12-13T07:28:51.594Z,-2.60
2018-12-13T07:31:19.850Z,-2.60
2018-12-13T07:33:49.167Z,-2.50
2018-12-13T07:36:17.364Z,-2.50
2018-12-13T07:38:45.676Z,-2.50
2018-12-13T07:41:13.917Z,-2.50
2018-12-13T07:43:42.091Z,-2.50
2018-12-13T07:46:10.287Z,-2.50
2018-12-13T07:48:39.429Z,-2.40
2018-12-13T07:51:07.667Z,-2.40
2018-12-13T07:53:35.922Z,-2.30
2018-12-13T07:56:05.994Z,-2.30
2018-12-13T07:58:34.275Z,-2.30
2018-12-13T08:01:06.962Z,-2.20
2018-12-13T08:03:35.223Z,-2.10
2018-12-13T08:06:05.694Z,-2.00
2018-12-13T08:08:33.975Z,-1.90
2018-12-13T08:11:06.467Z,-1.70
2018-12-13T08:13:34.690Z,-1.40
2018-12-13T08:16:05.904Z,-0.90
2018-12-13T08:18:35.092Z,-0.60
2018-12-13T08:21:07.749Z,-0.50
2018-12-13T08:23:35.983Z,-0.30
2018-12-13T08:26:06.890Z,-0.10
2018-12-13T08:28:35.139Z,-0.10
2018-12-13T08:31:06.250Z,0.30
2018-12-13T08:33:35.478Z,0.90
2018-12-13T08:36:04.937Z,1.20
2018-12-13T08:38:33.079Z,0.30
2018-12-13T08:41:01.202Z,0.30
2018-12-13T08:43:30.322Z,0.90
2018-12-13T08:45:58.625Z,1.90
2018-12-13T08:48:26.756Z,3.10
2018-12-13T08:50:54.871Z,3.60
2018-12-13T08:53:23.666Z,3.70
2018-12-13T08:55:51.874Z,4.10
2018-12-13T08:58:20.337Z,4.40
2018-12-13T09:00:48.542Z,4.50
2018-12-13T09:03:16.860Z,4.80
2018-12-13T09:05:44.999Z,5.30
2018-12-13T09:08:13.228Z,5.40
2018-12-13T09:10:41.514Z,5.50
2018-12-13T09:13:09.635Z,5.80
2018-12-13T09:15:37.770Z,5.90
2018-12-13T09:18:06.043Z,5.90
2018-12-13T09:20:34.245Z,6.00
2018-12-13T09:23:05.399Z,5.50
2018-12-13T09:25:33.595Z,5.80
2018-12-13T09:28:04.843Z,5.90
2018-12-13T09:30:32.971Z,6.20
2018-12-13T09:33:03.743Z,6.30
2018-12-13T09:35:31.883Z,6.40
2018-12-13T09:38:00.122Z,6.50
2018-12-13T09:40:28.248Z,6.40
2018-12-13T09:42:56.374Z,6.70
2018-12-13T09:45:24.510Z,7.30
2018-12-13T09:47:52.710Z,7.60
2018-12-13T09:50:20.826Z,6.90
2018-12-13T09:52:49.326Z,7.00
2018-12-13T09:55:17.446Z,7.50
2018-12-13T09:57:45.567Z,7.50
2018-12-13T10:00:13.771Z,7.60
2018-12-13T10:02:41.998Z,7.70
2018-12-13T10:05:10.218Z,7.90
2018-12-13T10:07:38.365Z,8.20
2018-12-13T10:10:10.466Z,7.10
2018-12-13T10:12:38.600Z,6.80
2018-12-13T10:15:07.300Z,6.70
2018-12-13T10:17:36.331Z,6.70
2018-12-13T10:20:05.174Z,7.50
2018-12-13T10:22:33.465Z,8.00
2018-12-13T10:25:02.871Z,8.20
2018-12-13T10:27:31.071Z,7.70
2018-12-13T10:29:59.916Z,7.00
2018-12-13T10:32:28.062Z,7.30
2018-12-13T10:34:57.723Z,7.50
2018-12-13T10:37:25.934Z,6.90
2018-12-13T10:39:54.455Z,6.50
2018-12-13T10:42:22.588Z,6.40
2018-12-13T10:44:50.903Z,7.00
2018-12-13T10:47:20.131Z,6.80
2018-12-13T10:49:48.351Z,5.20
2018-12-13T10:52:16.564Z,4.70
2018-12-13T10:54:44.706Z,5.00
2018-12-13T10:57:12.823Z,5.50
2018-12-13T10:59:40.949Z,5.20
2018-12-13T11:02:14.643Z,4.60
2018-12-13T11:04:42.755Z,4.50
2018-12-13T11:07:11.223Z,3.90
2018-12-13T11:09:39.337Z,4.00
2018-12-13T11:12:07.539Z,4.20
2018-12-13T11:14:35.943Z,3.90
2018-12-13T11:17:04.967Z,4.00
2018-12-13T11:19:33.158Z,3.60
2018-12-13T11:22:05.604Z,3.50
2018-12-13T11:24:33.712Z,3.20
2018-12-13T11:27:16.543Z,2.70
2018-12-13T11:30:00.076Z,2.10
2018-12-13T11:32:28.211Z,1.70
2018-12-13T11:34:56.415Z,1.40
2018-12-13T11:37:24.542Z,1.20
2018-12-13T11:39:54.197Z,1.10
2018-12-13T11:42:22.295Z,1.10
2018-12-13T11:44:50.622Z,1.10
2018-12-13T11:47:18.822Z,1.20
2018-12-13T11:49:47.565Z,1.70
2018-12-13T11:52:15.674Z,1.60
2018-12-13T11:54:44.726Z,1.60
2018-12-13T11:57:13.097Z,1.80
2018-12-13T11:59:41.372Z,1.90
2018-12-13T12:02:09.958Z,1.50
2018-12-13T12:04:38.167Z,1.40
2018-12-13T12:07:06.372Z,1.20
2018-12-13T12:09:34.649Z,1.10
2018-12-13T12:12:06.655Z,1.10
2018-12-13T12:14:34.866Z,1.00
2018-12-13T12:17:08.336Z,0.90
2018-12-13T12:19:36.459Z,1.00
2018-12-13T12:22:05.922Z,1.00
2018-12-13T12:24:34.130Z,1.10
2018-12-13T12:27:04.260Z,1.10
2018-12-13T12:29:32.874Z,1.10
2018-12-13T12:32:06.108Z,1.20
2018-12-13T12:34:34.236Z,1.80
2018-12-13T12:37:07.921Z,2.70
2018-12-13T12:39:36.138Z,3.20
2018-12-13T12:42:05.851Z,3.70
2018-12-13T12:44:35.278Z,4.00
2018-12-13T12:47:03.874Z,3.40
2018-12-13T12:49:31.991Z,2.60
2018-12-13T12:52:00.202Z,2.30
2018-12-13T12:54:28.387Z,2.20
2018-12-13T12:56:56.524Z,2.20
2018-12-13T12:59:25.379Z,2.10
2018-12-13T13:01:55.394Z,1.80
2018-12-13T13:04:23.551Z,1.60
2018-12-13T13:06:52.479Z,1.60
2018-12-13T13:09:25.032Z,1.50
2018-12-13T13:11:50.858Z,1.50
2018-12-13T13:14:19.256Z,1.50
2018-12-13T13:16:48.365Z,1.50
2018-12-13T13:19:16.566Z,1.40
2018-12-13T13:21:44.692Z,1.40
2018-12-13T13:30:26.166Z,1.10
2018-12-13T13:32:54.655Z,1.20
2018-12-13T13:35:22.891Z,1.10
2018-12-13T13:37:51.026Z,1.00
2018-12-13T13:40:19.245Z,1.00
2018-12-13T13:42:47.437Z,1.00
2018-12-13T13:45:15.749Z,1.00
2018-12-13T13:47:43.874Z,1.00
2018-12-13T13:50:12.154Z,1.00
2018-12-13T13:52:40.279Z,1.00
2018-12-13T13:55:08.953Z,1.00
2018-12-13T13:57:38.011Z,1.00
2018-12-13T14:00:06.474Z,0.90
2018-12-13T14:02:34.610Z,0.90
2018-12-13T14:05:05.824Z,0.90
2018-12-13T14:07:34.011Z,0.90
2018-12-13T14:10:05.485Z,0.90
2018-12-13T14:12:33.596Z,0.80
2018-12-13T14:15:04.643Z,0.80
2018-12-13T14:17:32.836Z,0.80
2018-12-13T14:20:04.653Z,0.80
2018-12-13T14:22:32.935Z,0.70
2018-12-13T14:25:05.607Z,0.60
2018-12-13T14:27:33.902Z,0.50
2018-12-13T14:30:04.619Z,0.50
2018-12-13T14:32:32.734Z,0.50
2018-12-13T14:35:03.727Z,0.60
2018-12-13T14:37:31.858Z,1.00
2018-12-13T14:40:00.061Z,1.20
2018-12-13T14:42:28.324Z,1.40
2018-12-13T14:44:56.566Z,1.50
2018-12-13T14:47:24.694Z,1.40
2018-12-13T14:49:52.822Z,1.10
2018-12-13T14:52:21.091Z,0.80
2018-12-13T14:54:49.215Z,0.70
2018-12-13T14:57:17.417Z,0.60
2018-12-13T14:59:48.463Z,0.60
2018-12-13T15:02:16.739Z,0.60
2018-12-13T15:04:44.895Z,0.50
2018-12-13T15:07:13.230Z,0.40
2018-12-13T15:09:41.419Z,0.40
2018-12-13T15:12:09.567Z,0.40
2018-12-13T15:14:37.702Z,0.30
2018-12-13T15:17:06.706Z,0.30
2018-12-13T15:19:34.858Z,0.20
2018-12-13T15:22:06.736Z,0.20
2018-12-13T15:24:34.979Z,0.20
2018-12-13T15:27:06.786Z,0.20
2018-12-13T15:29:35.798Z,0.20
2018-12-13T15:32:07.083Z,0.10
2018-12-13T15:34:35.290Z,0.20
2018-12-13T15:37:05.092Z,0.20
2018-12-13T15:39:33.299Z,0.10
2018-12-13T15:42:03.185Z,0.10
2018-12-13T15:44:31.342Z,0.10
2018-12-13T15:46:59.470Z,0.10
2018-12-13T15:49:28.354Z,0.10
2018-12-13T15:51:56.575Z,0.10
2018-12-13T15:54:24.759Z,0.10
2018-12-13T15:56:52.975Z,0.00
2018-12-13T15:59:21.182Z,-0.10
2018-12-13T16:01:49.311Z,-0.10
2018-12-13T16:04:17.450Z,-0.20
2018-12-13T16:06:45.606Z,-0.20
2018-12-13T16:09:13.719Z,-0.20
2018-12-13T16:11:41.852Z,-0.30
2018-12-13T16:14:09.995Z,-0.30
2018-12-13T16:16:38.411Z,-0.30
2018-12-13T16:19:06.893Z,-0.40
2018-12-13T16:21:35.010Z,-0.40
2018-12-13T16:24:04.892Z,-0.40
2018-12-13T16:26:33.027Z,-0.40
2018-12-13T16:31:29.164Z,-0.40
2018-12-13T16:33:57.600Z,-0.40
2018-12-13T16:36:25.795Z,-0.40
2018-12-13T16:38:53.938Z,-0.50
2018-12-13T16:41:22.074Z,-0.50
2018-12-13T16:43:50.314Z,-0.50
2018-12-13T16:46:19.379Z,-0.40
2018-12-13T16:48:47.718Z,-0.50
2018-12-13T16:51:15.855Z,-0.50
2018-12-13T16:53:44.007Z,-0.50
2018-12-13T16:56:12.161Z,-0.50
2018-12-13T16:58:41.222Z,-0.60
2018-12-13T17:01:09.450Z,-0.60
2018-12-13T17:03:41.783Z,-0.60
2018-12-13T17:06:10.106Z,-0.60
2018-12-13T17:08:38.234Z,-0.60
2018-12-13T17:11:06.631Z,-0.60
2018-12-13T17:13:34.835Z,-0.70
2018-12-13T17:16:06.640Z,-0.60
2018-12-13T17:18:34.768Z,-0.60
2018-12-13T17:21:07.005Z,-0.60
2018-12-13T17:23:35.529Z,-0.70
2018-12-13T17:26:04.195Z,-0.70
2018-12-13T17:28:32.346Z,-0.70
2018-12-13T17:31:00.548Z,-0.70
2018-12-13T17:33:28.722Z,-0.70
2018-12-13T17:35:56.870Z,-0.70
2018-12-13T17:38:25.138Z,-0.70
2018-12-13T17:40:53.360Z,-0.70
2018-12-13T17:43:21.569Z,-0.70
2018-12-13T17:45:50.711Z,-0.70
2018-12-13T17:48:18.848Z,-0.60
2018-12-13T17:50:47.079Z,-0.60
2018-12-13T17:53:15.235Z,-0.50
2018-12-13T17:55:43.363Z,-0.50
2018-12-13T17:58:11.543Z,-0.50
2018-12-13T18:00:39.827Z,-0.60
2018-12-13T18:03:08.053Z,-0.60
2018-12-13T18:05:36.304Z,-0.50
2018-12-13T18:08:07.567Z,-0.60
2018-12-13T18:10:36.031Z,-0.60
2018-12-13T18:13:08.855Z,-0.60
2018-12-13T18:15:36.986Z,-0.60
2018-12-13T18:18:06.771Z,-0.60
2018-12-13T18:20:34.882Z,-0.60
2018-12-13T18:23:09.147Z,-0.60
2018-12-13T18:25:38.114Z,-0.60
2018-12-13T18:28:06.924Z,-0.60
2018-12-13T18:30:35.251Z,-0.60
2018-12-13T18:33:05.075Z,-0.50
2018-12-13T18:35:33.210Z,-0.60
2018-12-13T18:38:04.862Z,-0.60
2018-12-13T18:40:35.700Z,-0.60
2018-12-13T18:43:06.666Z,-0.60
2018-12-13T18:45:36.826Z,-0.60
2018-12-13T18:48:07.656Z,-0.70
2018-12-13T18:50:35.878Z,-0.60
2018-12-13T18:53:05.168Z,-0.60
2018-12-13T18:55:33.296Z,-0.60
2018-12-13T18:58:04.692Z,-0.60
2018-12-13T19:00:32.827Z,-0.60
2018-12-13T19:03:01.816Z,-0.60
2018-12-13T19:05:30.127Z,-0.60
2018-12-13T19:07:58.286Z,-0.60
2018-12-13T19:10:26.508Z,-0.60
2018-12-13T19:12:54.650Z,-0.60
2018-12-13T19:15:22.807Z,-0.60
2018-12-13T19:17:50.935Z,-0.60
2018-12-13T19:20:19.271Z,-0.60
2018-12-13T19:22:47.764Z,-0.50
2018-12-13T19:25:15.902Z,-0.50
2018-12-13T19:27:44.766Z,-0.50
2018-12-13T19:30:12.979Z,-0.50
2018-12-13T19:32:41.283Z,-0.50
2018-12-13T19:35:09.410Z,-0.50
2018-12-13T19:37:37.573Z,-0.50
2018-12-13T19:40:07.174Z,-0.50
2018-12-13T19:42:35.379Z,-0.50
2018-12-13T19:45:06.381Z,-0.50
2018-12-13T19:47:34.514Z,-0.50
2018-12-13T19:50:03.496Z,-0.50
2018-12-13T19:52:31.650Z,-0.50
2018-12-13T19:54:59.799Z,-0.60
2018-12-13T19:57:27.927Z,-0.60
2018-12-13T19:59:56.075Z,-0.60
2018-12-13T20:02:24.294Z,-0.60
2018-12-13T20:04:52.447Z,-0.50
2018-12-13T20:07:20.658Z,-0.50
2018-12-13T20:09:48.874Z,-0.50
2018-12-13T20:12:17.002Z,-0.60
2018-12-13T20:14:45.147Z,-0.50
2018-12-13T20:17:13.284Z,-0.50
2018-12-13T20:19:41.584Z,-0.50
2018-12-13T20:22:09.725Z,-0.60
2018-12-13T20:24:37.914Z,-0.50
2018-12-13T20:27:06.062Z,-0.60
2018-12-13T20:29:34.804Z,-0.60
2018-12-13T20:32:06.815Z,-0.60
2018-12-13T20:34:34.964Z,-0.60
2018-12-13T20:37:07.078Z,-0.60
2018-12-13T20:39:35.211Z,-0.60
2018-12-13T20:42:05.031Z,-0.60
2018-12-13T20:44:33.191Z,-0.60
2018-12-13T20:47:03.077Z,-0.60
2018-12-13T20:49:31.283Z,-0.60
2018-12-13T20:51:59.423Z,-0.70
2018-12-13T20:54:27.815Z,-0.70
2018-12-13T20:56:55.931Z,-0.60
2018-12-13T20:59:24.359Z,-0.60
2018-12-13T21:01:52.483Z,-0.60
2018-12-13T21:04:20.607Z,-0.70
2018-12-13T21:06:53.011Z,-0.60
2018-12-13T21:09:21.130Z,-0.60
2018-12-13T21:11:49.327Z,-0.60
2018-12-13T21:14:18.830Z,-0.60
2018-12-13T21:16:47.023Z,-0.60
2018-12-13T21:19:15.142Z,-0.70
2018-12-13T21:21:43.338Z,-0.70
2018-12-13T21:24:11.627Z,-0.70
2018-12-13T21:26:39.758Z,-0.70
2018-12-13T21:29:07.970Z,-0.70
2018-12-13T21:31:36.443Z,-0.70
2018-12-13T21:34:04.641Z,-0.70
2018-12-13T21:36:32.770Z,-0.70
2018-12-13T21:39:03.912Z,-0.70
2018-12-13T21:41:32.170Z,-0.70
2018-12-13T21:44:00.306Z,-0.70
2018-12-13T21:46:28.476Z,-0.70
2018-12-13T21:48:56.635Z,-0.70
2018-12-13T21:51:24.918Z,-0.70
2018-12-13T21:53:53.172Z,-0.70
2018-12-13T21:56:21.363Z,-0.70
2018-12-13T21:58:50.298Z,-0.70
2018-12-13T22:01:19.494Z,-0.70
2018-12-13T22:03:47.638Z,-0.70
2018-12-13T22:06:15.758Z,-0.70
2018-12-13T22:08:43.995Z,-0.70
2018-12-13T22:11:12.134Z,-0.70
2018-12-13T22:13:40.308Z,-0.70
2018-12-13T22:16:08.531Z,-0.70
2018-12-13T22:18:36.705Z,-0.70
2018-12-13T22:21:06.112Z,-0.70
2018-12-13T22:23:34.282Z,-0.70
2018-12-13T22:26:05.214Z,-0.70
2018-12-13T22:28:33.379Z,-0.80
2018-12-13T22:31:03.778Z,-0.80
2018-12-13T22:33:31.955Z,-0.80
2018-12-13T22:36:00.110Z,-0.80
2018-12-13T22:38:28.274Z,-0.80
2018-12-13T22:40:56.674Z,-0.80
2018-12-13T22:43:25.584Z,-0.80
2018-12-13T22:45:53.754Z,-0.80
2018-12-13T22:48:21.930Z,-0.90
2018-12-13T22:50:50.199Z,-0.80
2018-12-13T22:53:18.416Z,-0.80
2018-12-13T22:55:46.617Z,-0.90
2018-12-13T22:58:15.796Z,-0.90
2018-12-13T23:00:44.015Z,-0.90
2018-12-13T23:03:12.251Z,-0.90
2018-12-13T23:05:40.575Z,-0.90
2018-12-13T23:08:08.720Z,-0.90
2018-12-13T23:10:36.911Z,-0.90
2018-12-13T23:13:05.182Z,-0.90
2018-12-13T23:15:33.338Z,-0.90
2018-12-13T23:18:02.046Z,-0.90
2018-12-13T23:20:30.218Z,-0.90
2018-12-13T23:22:58.383Z,-0.90
2018-12-13T23:25:26.616Z,-1.00
2018-12-13T23:27:54.778Z,-1.00
2018-12-13T23:30:22.996Z,-1.00
2018-12-13T23:32:52.264Z,-1.00
2018-12-13T23:35:21.619Z,-1.00
2018-12-13T23:37:49.870Z,-1.00
2018-12-13T23:40:18.010Z,-1.00
2018-12-13T23:42:46.208Z,-1.00
2018-12-13T23:45:14.447Z,-1.00
2018-12-13T23:47:42.686Z,-1.00
2018-12-13T23:50:11.067Z,-1.00
2018-12-13T23:52:39.383Z,-1.00
2018-12-13T23:55:07.698Z,-1.00
2018-12-13T23:57:35.851Z,-1.00
